createdAt,value
2023-04-04T00:01:11.117Z,8.40
2023-04-04T00:03:43.264Z,8.40
2023-04-04T00:06:11.673Z,7.10
2023-04-04T00:08:39.938Z,6.70
2023-04-04T00:11:08.439Z,9.00
2023-04-04T00:13:38.869Z,7.80
2023-04-04T00:16:07.018Z,7.90
2023-04-04T00:18:38.987Z,9.80
2023-04-04T00:21:07.667Z,10.50
2023-04-04T00:23:37.327Z,7.70
2023-04-04T00:26:05.553Z,7.00
2023-04-04T00:28:33.604Z,8.20
2023-04-04T00:31:02.394Z,7.80
2023-04-04T00:33:31.405Z,7.10
2023-04-04T00:35:59.877Z,8.40
2023-04-04T00:38:29.696Z,8.70
2023-04-04T00:40:57.803Z,7.70
2023-04-04T00:43:25.958Z,8.30
2023-04-04T00:45:54.055Z,7.80
2023-04-04T00:48:24.425Z,6.50
2023-04-04T00:50:52.759Z,9.90
2023-04-04T00:53:20.794Z,7.00
2023-04-04T00:55:49.171Z,10.10
2023-04-04T00:58:17.435Z,9.50
2023-04-04T01:00:45.470Z,10.10
2023-04-04T01:03:25.276Z,9.30
2023-04-04T01:05:55.286Z,8.00
2023-04-04T01:08:25.109Z,7.80
2023-04-04T01:10:56.330Z,9.40
2023-04-04T01:13:24.516Z,7.50
2023-04-04T01:15:53.196Z,9.80
2023-04-04T01:18:22.225Z,8.00
2023-04-04T01:24:03.253Z,10.30
2023-04-04T01:26:42.029Z,9.80
2023-04-04T01:29:10.499Z,10.20
2023-04-04T01:31:41.856Z,8.70
2023-04-04T01:34:12.277Z,9.40
2023-04-04T01:36:58.138Z,11.50
2023-04-04T01:39:35.947Z,10.10
2023-04-04T01:42:05.362Z,8.60
2023-04-04T01:44:34.541Z,10.10
2023-04-04T01:47:11.865Z,13.10
2023-04-04T01:49:40.930Z,10.40
2023-04-04T01:52:09.734Z,10.40
2023-04-04T01:54:39.190Z,13.10
2023-04-04T01:57:07.517Z,11.10
2023-04-04T01:59:36.674Z,12.10
2023-04-04T02:02:04.995Z,13.10
2023-04-04T02:04:33.287Z,10.60
2023-04-04T02:07:05.217Z,11.40
2023-04-04T02:09:34.516Z,12.80
2023-04-04T02:12:03.220Z,11.90
2023-04-04T02:14:35.809Z,12.80
2023-04-04T02:17:04.061Z,11.50
2023-04-04T02:19:32.237Z,13.40
2023-04-04T02:22:01.126Z,11.40
2023-04-04T02:24:30.015Z,12.40
2023-04-04T02:26:58.088Z,18.10
2023-04-04T02:29:27.863Z,12.10
2023-04-04T02:31:56.282Z,13.50
2023-04-04T02:34:24.460Z,15.60
2023-04-04T02:36:53.659Z,13.30
2023-04-04T02:39:22.401Z,13.60
2023-04-04T02:41:52.721Z,15.70
2023-04-04T02:44:20.925Z,14.00
2023-04-04T02:46:55.930Z,14.30
2023-04-04T02:49:29.784Z,16.50
2023-04-04T02:51:58.150Z,14.90
2023-04-04T02:54:27.250Z,15.90
2023-04-04T02:56:55.740Z,14.60
2023-04-04T02:59:24.916Z,14.20
2023-04-04T03:01:53.486Z,12.70
2023-04-04T03:04:21.995Z,14.90
2023-04-04T03:06:50.254Z,14.40
2023-04-04T03:09:19.354Z,15.10
2023-04-04T03:11:47.454Z,14.30
2023-04-04T03:14:23.691Z,15.30
2023-04-04T03:16:53.672Z,11.40
2023-04-04T03:19:21.896Z,14.60
2023-04-04T03:21:52.317Z,14.60
2023-04-04T03:24:20.526Z,13.60
2023-04-04T03:26:48.695Z,17.20
2023-04-04T03:29:17.451Z,14.80
2023-04-04T03:31:46.796Z,17.60
2023-04-04T03:34:15.842Z,14.40
2023-04-04T03:36:46.704Z,16.00
2023-04-04T03:39:14.959Z,14.00
2023-04-04T03:41:43.106Z,17.80
2023-04-04T03:44:11.119Z,18.20
2023-04-04T03:46:40.732Z,15.00
2023-04-04T03:49:09.586Z,18.00
2023-04-04T03:51:41.977Z,16.40
2023-04-04T03:54:10.256Z,14.70
2023-04-04T03:56:38.891Z,16.90
2023-04-04T03:59:07.273Z,17.50
2023-04-04T04:01:36.026Z,15.60
2023-04-04T04:04:06.761Z,19.20
2023-04-04T04:06:36.090Z,24.10
2023-04-04T04:09:04.233Z,15.70
2023-04-04T04:11:34.003Z,19.90
2023-04-04T04:14:02.080Z,16.90
2023-04-04T04:16:30.253Z,18.80
2023-04-04T04:18:59.274Z,16.20
2023-04-04T04:21:37.804Z,17.20
2023-04-04T04:24:08.586Z,16.60
2023-04-04T04:26:37.330Z,19.20
2023-04-04T04:29:07.541Z,15.50
2023-04-04T04:31:36.334Z,15.50
2023-04-04T04:34:08.776Z,15.70
2023-04-04T04:36:39.820Z,15.20
2023-04-04T04:39:36.571Z,17.10
2023-04-04T04:42:21.516Z,17.80
2023-04-04T04:44:53.855Z,12.20
2023-04-04T04:47:22.940Z,18.00
2023-04-04T04:49:54.870Z,17.10
2023-04-04T04:52:32.725Z,15.30
2023-04-04T04:55:02.169Z,17.10
2023-04-04T04:57:31.278Z,16.20
2023-04-04T05:00:01.466Z,18.20
2023-04-04T05:02:34.447Z,19.40
2023-04-04T05:05:03.282Z,19.70
2023-04-04T05:07:33.753Z,19.20
2023-04-04T05:10:07.259Z,17.60
2023-04-04T05:12:37.307Z,18.90
2023-04-04T05:15:06.807Z,16.30
2023-04-04T05:17:36.284Z,14.10
2023-04-04T05:20:08.777Z,21.70
2023-04-04T05:22:42.260Z,14.30
2023-04-04T05:25:13.942Z,17.10
2023-04-04T05:27:48.848Z,18.20
2023-04-04T05:30:18.660Z,14.50
2023-04-04T05:32:58.612Z,14.10
2023-04-04T05:35:29.586Z,18.70
2023-04-04T05:37:58.574Z,14.60
2023-04-04T05:40:26.907Z,15.50
2023-04-04T05:43:04.827Z,16.80
2023-04-04T05:45:41.794Z,13.90
2023-04-04T05:48:10.837Z,16.20
2023-04-04T05:50:47.495Z,15.50
2023-04-04T05:53:17.283Z,15.80
2023-04-04T05:55:47.438Z,15.80
2023-04-04T05:58:19.608Z,16.80
2023-04-04T06:00:52.555Z,13.80
2023-04-04T06:03:22.327Z,15.00
2023-04-04T06:05:55.680Z,13.30
2023-04-04T06:08:26.009Z,16.70
2023-04-04T06:10:56.117Z,15.90
2023-04-04T06:13:24.910Z,14.20
2023-04-04T06:15:57.203Z,14.80
2023-04-04T06:18:25.510Z,14.00
2023-04-04T06:20:56.896Z,13.80
2023-04-04T06:23:26.177Z,16.20
2023-04-04T06:25:54.470Z,11.20
2023-04-04T06:28:24.022Z,11.80
2023-04-04T06:30:52.546Z,16.80
2023-04-04T06:33:30.472Z,11.10
2023-04-04T06:35:59.054Z,15.80
2023-04-04T06:38:31.654Z,12.80
2023-04-04T06:41:04.020Z,12.00
2023-04-04T06:43:32.161Z,14.30
2023-04-04T06:46:00.220Z,11.80
2023-04-04T06:48:28.445Z,13.20
2023-04-04T06:50:57.219Z,12.30
2023-04-04T06:53:27.318Z,11.90
2023-04-04T06:55:55.740Z,12.30
2023-04-04T06:58:28.506Z,10.80
2023-04-04T07:01:00.038Z,14.10
2023-04-04T07:03:29.034Z,13.30
2023-04-04T07:05:57.684Z,12.00
2023-04-04T07:08:27.518Z,13.70
2023-04-04T07:10:59.011Z,12.10
2023-04-04T07:13:29.673Z,13.80
2023-04-04T07:15:58.140Z,11.70
2023-04-04T07:18:26.297Z,12.40
2023-04-04T07:20:54.307Z,11.60
2023-04-04T07:23:24.673Z,12.30
2023-04-04T07:25:53.458Z,10.10
2023-04-04T07:28:22.063Z,11.70
2023-04-04T07:31:01.980Z,10.70
2023-04-04T07:33:32.464Z,12.40
2023-04-04T07:36:03.641Z,11.80
2023-04-04T07:38:34.875Z,12.90
2023-04-04T07:41:04.392Z,8.70
2023-04-04T07:43:34.288Z,13.70
2023-04-04T07:46:04.732Z,10.60
2023-04-04T07:48:32.986Z,11.40
2023-04-04T07:51:05.403Z,15.20
2023-04-04T07:53:34.406Z,11.10
2023-04-04T07:56:06.607Z,12.60
2023-04-04T07:58:37.551Z,10.20
2023-04-04T08:01:05.476Z,14.60
2023-04-04T08:03:35.160Z,12.60
2023-04-04T08:06:03.307Z,12.90
2023-04-04T08:08:32.721Z,11.30
2023-04-04T08:11:03.193Z,12.70
2023-04-04T08:13:32.830Z,11.90
2023-04-04T08:16:01.360Z,12.20
2023-04-04T08:18:30.513Z,15.80
2023-04-04T08:20:59.120Z,10.70
2023-04-04T08:23:27.847Z,11.80
2023-04-04T08:25:56.237Z,11.40
2023-04-04T08:28:24.289Z,13.60
2023-04-04T08:30:54.636Z,12.10
2023-04-04T08:33:37.362Z,11.40
2023-04-04T08:36:16.325Z,11.30
2023-04-04T08:38:47.930Z,13.50
2023-04-04T08:41:16.291Z,10.70
2023-04-04T08:43:54.326Z,10.20
2023-04-04T08:46:23.522Z,11.10
2023-04-04T08:48:53.046Z,12.00
2023-04-04T08:51:21.192Z,12.40
2023-04-04T08:53:53.602Z,10.10
2023-04-04T08:56:21.872Z,9.80
2023-04-04T08:58:50.090Z,10.40
2023-04-04T09:01:18.396Z,9.80
2023-04-04T09:03:48.253Z,11.20
2023-04-04T09:06:16.692Z,10.30
2023-04-04T09:08:45.544Z,10.70
2023-04-04T09:11:14.058Z,9.70
2023-04-04T09:13:42.055Z,10.20
2023-04-04T09:16:10.486Z,10.50
2023-04-04T09:18:39.294Z,8.10
2023-04-04T09:21:14.797Z,9.20
2023-04-04T09:23:43.740Z,10.10
2023-04-04T09:26:13.459Z,9.70
2023-04-04T09:28:44.039Z,9.20
2023-04-04T09:31:11.991Z,9.40
2023-04-04T09:33:40.320Z,7.60
2023-04-04T09:36:11.158Z,9.50
2023-04-04T09:38:45.569Z,8.90
2023-04-04T09:41:14.788Z,10.90
2023-04-04T09:43:45.146Z,11.10
2023-04-04T09:46:13.262Z,9.80
2023-04-04T09:48:44.104Z,8.50
2023-04-04T09:51:12.852Z,10.30
2023-04-04T09:53:44.449Z,7.60
2023-04-04T09:56:12.935Z,8.80
2023-04-04T09:58:52.465Z,9.60
2023-04-04T10:01:28.824Z,8.30
2023-04-04T10:03:58.222Z,8.10
2023-04-04T10:06:27.109Z,9.10
2023-04-04T10:08:56.645Z,10.50
2023-04-04T10:11:34.510Z,8.40
2023-04-04T10:14:06.990Z,7.60
2023-04-04T10:16:37.999Z,9.80
2023-04-04T10:19:09.219Z,8.70
2023-04-04T10:21:43.255Z,8.10
2023-04-04T10:24:11.568Z,9.50
2023-04-04T10:26:39.986Z,10.40
2023-04-04T10:29:10.402Z,9.60
2023-04-04T10:31:41.042Z,10.10
2023-04-04T10:34:18.840Z,7.50
2023-04-04T10:36:54.375Z,9.20
2023-04-04T10:39:41.090Z,8.30
2023-04-04T10:42:09.063Z,6.70
2023-04-04T10:44:39.469Z,7.70
2023-04-04T10:47:19.673Z,6.90
2023-04-04T10:49:48.628Z,6.90
2023-04-04T10:52:24.984Z,8.10
2023-04-04T10:54:55.003Z,9.50
2023-04-04T10:57:23.981Z,8.30
2023-04-04T11:00:04.255Z,7.90
2023-04-04T11:02:51.550Z,5.00
2023-04-04T11:05:42.337Z,7.80
2023-04-04T11:08:14.166Z,8.50
2023-04-04T11:10:47.776Z,7.30
2023-04-04T11:13:26.578Z,6.60
2023-04-04T11:16:17.287Z,7.10
2023-04-04T11:18:50.303Z,5.10
2023-04-04T11:21:20.249Z,6.30
2023-04-04T11:23:51.328Z,7.30
2023-04-04T11:26:28.497Z,7.10
2023-04-04T11:29:00.159Z,6.70
2023-04-04T11:31:33.773Z,5.60
2023-04-04T11:34:15.241Z,6.30
2023-04-04T11:36:45.357Z,5.40
2023-04-04T11:39:24.715Z,7.10
2023-04-04T11:41:55.786Z,6.70
2023-04-04T11:44:29.438Z,6.10
2023-04-04T11:47:02.552Z,7.20
2023-04-04T11:49:38.387Z,7.40
2023-04-04T11:52:11.584Z,8.30
2023-04-04T11:54:40.869Z,6.70
2023-04-04T11:57:19.457Z,9.30
2023-04-04T11:59:48.859Z,8.50
2023-04-04T12:02:20.527Z,7.40
2023-04-04T12:04:49.283Z,8.40
2023-04-04T12:07:21.219Z,7.70
2023-04-04T12:09:49.616Z,6.20
2023-04-04T12:12:17.774Z,5.00
2023-04-04T12:14:50.380Z,9.10
2023-04-04T12:17:19.798Z,7.00
2023-04-04T12:19:47.830Z,7.40
2023-04-04T12:22:16.524Z,6.40
2023-04-04T12:24:45.075Z,6.00
2023-04-04T12:27:13.387Z,6.40
2023-04-04T12:29:43.103Z,6.40
2023-04-04T12:32:13.808Z,6.80
2023-04-04T12:34:45.561Z,5.90
2023-04-04T12:37:19.170Z,8.90
2023-04-04T12:39:52.642Z,7.10
2023-04-04T12:42:24.632Z,6.70
2023-04-04T12:44:53.825Z,7.80
2023-04-04T12:47:24.573Z,7.50
2023-04-04T12:49:56.544Z,7.80
2023-04-04T12:52:30.301Z,6.10
2023-04-04T12:55:08.069Z,6.80
2023-04-04T12:57:39.597Z,6.70
2023-04-04T13:00:09.441Z,7.50
2023-04-04T13:02:38.803Z,7.80
2023-04-04T13:05:08.035Z,8.40
2023-04-04T13:07:44.579Z,6.40
2023-04-04T13:10:15.095Z,6.60
2023-04-04T13:12:58.814Z,6.40
2023-04-04T13:15:49.602Z,8.00
2023-04-04T13:18:22.636Z,7.60
2023-04-04T13:20:52.392Z,10.90
2023-04-04T13:23:21.564Z,8.20
2023-04-04T13:25:50.058Z,5.70
2023-04-04T13:28:18.455Z,8.30
2023-04-04T13:30:49.225Z,6.40
2023-04-04T13:33:18.227Z,7.20
2023-04-04T13:35:46.613Z,7.20
2023-04-04T13:41:03.621Z,10.30
2023-04-04T13:43:35.447Z,6.80
2023-04-04T13:46:03.428Z,6.90
2023-04-04T13:48:32.316Z,9.20
2023-04-04T13:51:01.287Z,7.60
2023-04-04T13:53:29.334Z,6.80
2023-04-04T13:56:17.156Z,8.20
2023-04-04T13:58:46.484Z,7.20
2023-04-04T14:01:14.546Z,7.20
2023-04-04T14:03:43.916Z,7.00
2023-04-04T14:06:12.714Z,6.50
2023-04-04T14:08:40.913Z,8.00
2023-04-04T14:11:14.070Z,6.90
2023-04-04T14:13:43.383Z,7.30
2023-04-04T14:16:12.046Z,6.90
2023-04-04T14:18:41.490Z,6.40
2023-04-04T14:21:13.867Z,6.70
2023-04-04T14:23:42.983Z,5.60
2023-04-04T14:26:14.302Z,7.10
2023-04-04T14:28:42.714Z,7.10
2023-04-04T14:31:10.889Z,6.30
2023-04-04T14:33:39.424Z,6.90
2023-04-04T14:36:08.544Z,7.40
2023-04-04T14:38:36.978Z,9.50
2023-04-04T14:41:05.181Z,9.10
2023-04-04T14:43:35.454Z,10.30
2023-04-04T14:46:05.273Z,7.60
2023-04-04T14:48:34.785Z,9.10
2023-04-04T14:53:33.759Z,8.10
2023-04-04T14:56:01.891Z,6.30
2023-04-04T14:58:33.205Z,8.90
2023-04-04T15:01:01.560Z,8.10
2023-04-04T15:03:30.711Z,8.90
2023-04-04T15:05:58.712Z,7.40
2023-04-04T15:08:28.495Z,10.40
2023-04-04T15:10:56.425Z,9.30
2023-04-04T15:13:31.395Z,9.60
2023-04-04T15:16:01.666Z,8.50
2023-04-04T15:18:30.542Z,8.40
2023-04-04T15:21:00.306Z,6.40
2023-04-04T15:23:28.390Z,8.00
2023-04-04T15:25:56.525Z,8.30
2023-04-04T15:28:27.258Z,10.50
2023-04-04T15:30:56.619Z,11.70
2023-04-04T15:33:24.864Z,10.20
2023-04-04T15:35:53.253Z,9.20
2023-04-04T15:38:21.611Z,8.20
2023-04-04T15:40:50.508Z,8.70
2023-04-04T15:43:19.900Z,10.40
2023-04-04T15:45:47.963Z,7.60
2023-04-04T15:48:16.604Z,8.00
2023-04-04T15:50:44.810Z,10.80
2023-04-04T15:53:13.636Z,9.30
2023-04-04T15:55:42.853Z,9.90
2023-04-04T15:58:11.228Z,8.10
2023-04-04T16:00:39.569Z,8.10
2023-04-04T16:03:13.997Z,7.40
2023-04-04T16:05:42.384Z,8.80
2023-04-04T16:08:16.302Z,9.20
2023-04-04T16:10:44.961Z,9.20
2023-04-04T16:13:13.451Z,10.20
2023-04-04T16:15:46.803Z,8.90
2023-04-04T16:18:15.711Z,8.80
2023-04-04T16:20:44.452Z,7.60
2023-04-04T16:23:18.454Z,11.70
2023-04-04T16:25:47.334Z,9.00
2023-04-04T16:28:15.598Z,9.20
2023-04-04T16:30:44.085Z,10.40
2023-04-04T16:33:13.886Z,10.50
2023-04-04T16:35:42.381Z,9.40
2023-04-04T16:38:12.696Z,10.20
2023-04-04T16:40:41.498Z,11.10
2023-04-04T16:43:10.178Z,10.50
2023-04-04T16:45:39.434Z,9.60
2023-04-04T16:48:07.825Z,11.20
2023-04-04T16:50:40.704Z,9.80
2023-04-04T16:53:09.954Z,11.20
2023-04-04T16:55:38.109Z,12.80
2023-04-04T16:58:06.327Z,14.30
2023-04-04T17:00:35.531Z,17.30
2023-04-04T17:03:05.109Z,14.10
2023-04-04T17:05:34.046Z,17.60
2023-04-04T17:08:02.046Z,14.50
2023-04-04T17:10:31.525Z,12.80
2023-04-04T17:12:59.710Z,14.10
2023-04-04T17:15:28.513Z,14.90
2023-04-04T17:17:57.227Z,13.70
2023-04-04T17:20:28.376Z,13.10
2023-04-04T17:22:57.935Z,15.40
2023-04-04T17:25:29.195Z,14.60
2023-04-04T17:27:57.778Z,13.80
2023-04-04T17:30:26.591Z,14.90
2023-04-04T17:32:56.369Z,14.20
2023-04-04T17:35:25.350Z,15.10
2023-04-04T17:37:54.066Z,15.10
2023-04-04T17:40:23.691Z,16.00
2023-04-04T17:42:52.263Z,16.90
2023-04-04T17:45:20.580Z,13.80
2023-04-04T17:47:48.836Z,20.60
2023-04-04T17:50:17.811Z,35.00
2023-04-04T17:52:46.498Z,26.20
2023-04-04T17:55:22.545Z,29.50
2023-04-04T17:57:51.097Z,27.80
2023-04-04T18:00:20.091Z,31.90
2023-04-04T18:02:48.857Z,23.30
2023-04-04T18:05:17.093Z,17.70
2023-04-04T18:07:45.464Z,25.60
2023-04-04T18:10:13.892Z,27.50
2023-04-04T18:12:44.409Z,17.00
2023-04-04T18:15:12.845Z,20.20
2023-04-04T18:17:42.189Z,20.10
2023-04-04T18:20:14.312Z,20.40
2023-04-04T18:22:48.336Z,18.50
2023-04-04T18:25:17.828Z,18.00
2023-04-04T18:27:45.991Z,18.50
2023-04-04T18:30:14.115Z,18.30
2023-04-04T18:32:42.605Z,18.70
2023-04-04T18:35:10.695Z,19.10
2023-04-04T18:37:38.892Z,16.20
2023-04-04T18:40:08.431Z,18.10
2023-04-04T18:42:37.591Z,14.10
2023-04-04T18:45:08.128Z,21.00
2023-04-04T18:47:36.970Z,19.80
2023-04-04T18:50:07.013Z,18.30
2023-04-04T18:52:36.532Z,16.80
2023-04-04T18:55:08.990Z,20.30
2023-04-04T18:57:38.723Z,18.80
2023-04-04T19:00:08.230Z,22.20
2023-04-04T19:02:38.486Z,19.50
2023-04-04T19:05:08.940Z,15.20
2023-04-04T19:07:37.574Z,16.20
2023-04-04T19:10:08.150Z,16.60
2023-04-04T19:12:41.079Z,15.10
2023-04-04T19:15:09.354Z,19.10
2023-04-04T19:17:39.109Z,19.90
2023-04-04T19:20:08.477Z,18.90
2023-04-04T19:22:36.461Z,21.00
2023-04-04T19:25:04.967Z,21.80
2023-04-04T19:27:33.032Z,20.00
2023-04-04T19:30:05.252Z,28.60
2023-04-04T19:32:42.924Z,20.10
2023-04-04T19:35:42.160Z,22.70
2023-04-04T19:38:11.067Z,24.90
2023-04-04T19:40:49.280Z,21.30
2023-04-04T19:43:22.741Z,20.10
2023-04-04T19:45:52.353Z,18.30
2023-04-04T19:48:43.754Z,19.50
2023-04-04T19:51:17.647Z,23.20
2023-04-04T19:53:47.426Z,17.90
2023-04-04T19:56:16.693Z,18.70
2023-04-04T19:58:45.660Z,22.40
2023-04-04T20:01:19.320Z,20.80
2023-04-04T20:03:47.507Z,19.30
2023-04-04T20:06:28.402Z,19.80
2023-04-04T20:09:02.062Z,20.30
2023-04-04T20:11:35.052Z,19.70
2023-04-04T20:14:07.317Z,20.90
2023-04-04T20:16:35.718Z,17.90
2023-04-04T20:19:06.706Z,21.10
2023-04-04T20:21:36.091Z,19.30
2023-04-04T20:24:08.348Z,19.00
2023-04-04T20:26:38.185Z,20.70
2023-04-04T20:29:08.367Z,18.30
2023-04-04T20:31:54.078Z,21.40
2023-04-04T20:34:38.760Z,22.40
2023-04-04T20:37:12.601Z,16.20
2023-04-04T20:39:46.834Z,19.50
2023-04-04T20:42:30.623Z,19.90
2023-04-04T20:45:08.232Z,18.40
2023-04-04T20:47:46.972Z,19.70
2023-04-04T20:50:18.776Z,21.10
2023-04-04T20:52:50.572Z,19.50
2023-04-04T20:55:19.430Z,21.80
2023-04-04T20:57:48.713Z,18.70
2023-04-04T21:00:28.697Z,17.10
2023-04-04T21:03:07.425Z,19.00
2023-04-04T21:05:38.564Z,15.70
2023-04-04T21:08:29.613Z,17.30
2023-04-04T21:10:57.787Z,16.90
2023-04-04T21:13:31.258Z,16.10
2023-04-04T21:16:00.808Z,18.70
2023-04-04T21:18:30.770Z,18.10
2023-04-04T21:21:13.919Z,15.60
2023-04-04T21:23:50.001Z,14.50
2023-04-04T21:26:32.025Z,17.20
2023-04-04T21:29:07.891Z,15.20
2023-04-04T21:31:38.572Z,14.70
2023-04-04T21:34:10.666Z,17.20
2023-04-04T21:36:41.408Z,16.50
2023-04-04T21:39:23.888Z,17.40
2023-04-04T21:41:56.577Z,17.80
2023-04-04T21:44:25.520Z,14.30
2023-04-04T21:46:56.505Z,12.90
2023-04-04T21:51:53.263Z,11.60
2023-04-04T21:54:21.729Z,14.10
2023-04-04T21:56:49.706Z,16.90
2023-04-04T21:59:18.027Z,14.30
2023-04-04T22:01:46.209Z,13.70
2023-04-04T22:04:15.463Z,16.60
2023-04-04T22:06:44.129Z,17.30
2023-04-04T22:09:12.115Z,14.40
2023-04-04T22:11:44.445Z,15.30
2023-04-04T22:14:17.371Z,15.70
2023-04-04T22:16:46.018Z,13.90
2023-04-04T22:19:14.284Z,16.30
2023-04-04T22:21:47.297Z,15.40
2023-04-04T22:24:18.655Z,14.70
2023-04-04T22:26:47.360Z,15.60
2023-04-04T22:29:15.498Z,15.60
2023-04-04T22:31:45.734Z,16.20
2023-04-04T22:34:15.226Z,18.30
2023-04-04T22:36:45.889Z,16.80
2023-04-04T22:39:16.316Z,14.50
2023-04-04T22:41:44.993Z,14.60
2023-04-04T22:44:13.410Z,14.90
2023-04-04T22:46:41.656Z,16.60
2023-04-04T22:49:10.017Z,15.10
2023-04-04T22:51:45.724Z,16.20
2023-04-04T22:54:15.929Z,14.10
2023-04-04T22:56:44.609Z,13.70
2023-04-04T22:59:17.860Z,12.30
2023-04-04T23:01:47.543Z,12.80
2023-04-04T23:04:16.756Z,15.30
2023-04-04T23:06:46.416Z,16.20
2023-04-04T23:09:14.757Z,16.70
2023-04-04T23:11:42.890Z,16.40
2023-04-04T23:14:14.854Z,14.40
2023-04-04T23:16:44.207Z,14.70
2023-04-04T23:19:12.756Z,14.20
2023-04-04T23:21:49.397Z,16.20
2023-04-04T23:24:17.862Z,11.90
2023-04-04T23:26:45.905Z,13.30
2023-04-04T23:29:14.581Z,13.40
2023-04-04T23:31:42.948Z,13.20
2023-04-04T23:34:11.351Z,12.80
2023-04-04T23:36:39.333Z,12.70
2023-04-04T23:39:11.703Z,13.50
2023-04-04T23:41:40.661Z,13.10
2023-04-04T23:44:08.661Z,14.40
2023-04-04T23:46:37.701Z,10.90
2023-04-04T23:49:06.170Z,10.90
2023-04-04T23:51:39.917Z,11.10
2023-04-04T23:54:10.611Z,12.40
2023-04-04T23:56:38.766Z,12.00
2023-04-04T23:59:07.386Z,10.20
